createdAt,value
2019-04-16T00:00:26.431Z,52.36
2019-04-16T00:02:55.579Z,52.56
2019-04-16T00:05:48.447Z,52.72
2019-04-16T00:08:27.869Z,52.74
2019-04-16T00:10:59.154Z,52.56
2019-04-16T00:13:45.923Z,52.44
2019-04-16T00:16:13.765Z,52.26
2019-04-16T00:18:41.156Z,52.55
2019-04-16T00:21:34.006Z,52.72
2019-04-16T00:24:20.784Z,52.94
2019-04-16T00:26:57.839Z,53.07
2019-04-16T00:29:23.339Z,53.27
2019-04-16T00:31:56.037Z,53.43
2019-04-16T00:34:23.602Z,53.54
2019-04-16T00:36:50.668Z,53.54
2019-04-16T00:39:17.876Z,53.73
2019-04-16T00:41:44.964Z,53.79
2019-04-16T00:44:12.133Z,54.03
2019-04-16T00:46:39.322Z,54.18
2019-04-16T00:49:06.503Z,54.20
2019-04-16T00:51:33.770Z,54.73
2019-04-16T00:54:00.943Z,54.81
2019-04-16T00:56:28.156Z,55.04
2019-04-16T00:58:55.588Z,55.36
2019-04-16T01:01:22.766Z,55.70
2019-04-16T01:03:50.086Z,55.84
2019-04-16T01:06:17.286Z,55.76
2019-04-16T01:08:54.337Z,55.73
2019-04-16T01:11:13.618Z,55.64
2019-04-16T01:13:41.154Z,55.85
2019-04-16T01:16:08.327Z,55.68
2019-04-16T01:18:38.493Z,55.83
2019-04-16T01:21:04.677Z,55.83
2019-04-16T01:23:31.755Z,55.79
2019-04-16T01:25:59.052Z,55.37
2019-04-16T01:28:29.407Z,55.46
2019-04-16T01:31:08.278Z,55.62
2019-04-16T01:33:58.332Z,55.85
2019-04-16T01:36:34.963Z,55.86
2019-04-16T01:39:16.087Z,55.93
2019-04-16T01:41:34.263Z,56.08
2019-04-16T01:44:01.459Z,55.93
2019-04-16T01:46:32.543Z,55.83
2019-04-16T01:48:58.315Z,55.94
2019-04-16T01:51:25.708Z,55.79
2019-04-16T01:53:53.033Z,55.65
2019-04-16T01:56:20.199Z,55.63
2019-04-16T01:58:47.647Z,55.59
2019-04-16T02:01:15.107Z,55.58
2019-04-16T02:03:42.273Z,55.57
2019-04-16T02:06:09.855Z,55.42
2019-04-16T02:08:37.046Z,55.09
2019-04-16T02:11:04.213Z,55.00
2019-04-16T02:13:31.845Z,54.87
2019-04-16T02:15:59.609Z,54.77
2019-04-16T02:18:29.445Z,54.75
2019-04-16T02:20:55.821Z,54.79
2019-04-16T02:23:23.023Z,54.64
2019-04-16T02:25:51.374Z,54.63
2019-04-16T02:28:21.601Z,54.70
2019-04-16T02:30:48.323Z,54.55
2019-04-16T02:33:15.379Z,54.57
2019-04-16T02:35:42.471Z,54.52
2019-04-16T02:38:12.283Z,54.59
2019-04-16T02:40:38.846Z,54.44
2019-04-16T02:43:07.632Z,54.42
2019-04-16T02:45:35.188Z,54.44
2019-04-16T02:48:02.293Z,54.50
2019-04-16T02:50:38.126Z,54.67
2019-04-16T02:53:36.894Z,54.57
2019-04-16T02:56:38.546Z,54.50
2019-04-16T02:59:15.319Z,54.59
2019-04-16T03:01:52.999Z,54.59
2019-04-16T03:04:26.739Z,54.50
2019-04-16T03:06:52.602Z,54.55
2019-04-16T03:09:19.793Z,54.74
2019-04-16T03:11:49.034Z,54.97
2019-04-16T03:14:16.624Z,55.14
2019-04-16T03:17:03.195Z,55.43
2019-04-16T03:19:38.746Z,55.51
2019-04-16T03:22:05.081Z,55.60
2019-04-16T03:24:32.132Z,55.81
2019-04-16T03:27:00.170Z,56.01
2019-04-16T03:29:30.415Z,55.94
2019-04-16T03:31:58.312Z,55.95
2019-04-16T03:34:25.784Z,56.05
2019-04-16T03:36:52.951Z,56.46
2019-04-16T03:39:20.147Z,56.51
2019-04-16T03:41:47.768Z,56.37
2019-04-16T03:44:14.945Z,56.64
2019-04-16T03:46:46.107Z,56.61
2019-04-16T03:49:11.183Z,56.71
2019-04-16T03:51:38.378Z,56.24
2019-04-16T03:54:06.050Z,56.52
2019-04-16T03:56:33.305Z,56.49
2019-04-16T03:59:00.759Z,56.54
2019-04-16T04:01:28.179Z,56.63
2019-04-16T04:03:57.550Z,56.83
2019-04-16T04:06:24.701Z,56.87
2019-04-16T04:08:53.307Z,56.72
2019-04-16T04:11:20.816Z,56.61
2019-04-16T04:13:50.055Z,56.69
2019-04-16T04:16:17.563Z,56.62
2019-04-16T04:18:44.728Z,56.46
2019-04-16T04:21:11.912Z,56.28
2019-04-16T04:23:39.348Z,56.55
2019-04-16T04:26:08.858Z,56.74
2019-04-16T04:28:35.477Z,56.56
2019-04-16T04:31:02.631Z,56.47
2019-04-16T04:33:41.686Z,56.38
2019-04-16T04:36:08.933Z,56.20
2019-04-16T04:38:37.408Z,56.13
2019-04-16T04:41:05.743Z,56.02
2019-04-16T04:43:33.162Z,56.02
2019-04-16T04:46:00.363Z,55.80
2019-04-16T04:48:27.563Z,55.70
2019-04-16T04:50:54.649Z,55.48
2019-04-16T04:53:21.796Z,55.19
2019-04-16T04:55:49.012Z,54.85
2019-04-16T04:58:16.199Z,54.58
2019-04-16T05:00:43.463Z,54.53
2019-04-16T05:03:15.527Z,54.02
2019-04-16T05:05:46.471Z,53.72
2019-04-16T05:08:13.761Z,53.43
2019-04-16T05:10:43.229Z,52.98
2019-04-16T05:13:10.185Z,52.76
2019-04-16T05:15:37.393Z,52.12
2019-04-16T05:18:05.914Z,51.73
2019-04-16T05:20:33.152Z,50.87
2019-04-16T05:23:00.330Z,48.22
2019-04-16T05:25:27.515Z,47.26
2019-04-16T05:27:54.722Z,44.78
2019-04-16T05:30:22.226Z,43.49
2019-04-16T05:32:49.323Z,42.96
2019-04-16T05:35:16.683Z,39.85
2019-04-16T05:37:43.893Z,34.19
2019-04-16T05:40:11.303Z,29.63
2019-04-16T05:42:38.486Z,26.32
2019-04-16T05:45:06.417Z,23.46
2019-04-16T05:47:33.694Z,21.70
2019-04-16T05:50:00.930Z,20.51
2019-04-16T05:52:28.111Z,19.33
2019-04-16T05:55:03.912Z,18.66
2019-04-16T05:57:33.336Z,17.71
2019-04-16T06:00:03.273Z,16.59
2019-04-16T06:02:38.652Z,16.05
2019-04-16T06:05:06.712Z,15.34
2019-04-16T06:07:37.734Z,14.53
2019-04-16T06:10:06.804Z,14.10
2019-04-16T06:12:52.780Z,14.70
2019-04-16T06:15:36.243Z,14.26
2019-04-16T06:18:17.466Z,13.99
2019-04-16T06:21:05.658Z,13.76
2019-04-16T06:24:03.559Z,12.78
2019-04-16T06:26:53.465Z,11.55
2019-04-16T06:29:37.799Z,10.67
2019-04-16T06:32:27.740Z,10.06
2019-04-16T06:35:11.673Z,9.97
2019-04-16T06:37:45.854Z,9.71
2019-04-16T06:40:35.477Z,8.93
2019-04-16T06:43:08.227Z,8.48
2019-04-16T06:45:40.249Z,8.14
2019-04-16T06:48:12.821Z,8.02
2019-04-16T06:50:56.956Z,7.66
2019-04-16T06:53:30.849Z,7.53
2019-04-16T06:56:29.810Z,7.29
2019-04-16T06:59:17.547Z,6.92
2019-04-16T07:02:11.791Z,6.83
2019-04-16T07:04:44.366Z,6.76
2019-04-16T07:07:15.612Z,6.54
2019-04-16T07:09:47.966Z,6.12
2019-04-16T07:12:20.361Z,6.32
2019-04-16T07:14:48.327Z,6.28
2019-04-16T07:17:18.314Z,6.53
2019-04-16T07:19:45.392Z,6.19
2019-04-16T07:22:12.576Z,6.10
2019-04-16T07:24:40.063Z,5.83
2019-04-16T07:27:07.701Z,6.20
2019-04-16T07:29:54.642Z,6.36
2019-04-16T07:32:56.089Z,6.12
2019-04-16T07:35:40.538Z,6.21
2019-04-16T07:38:14.313Z,6.36
2019-04-16T07:40:59.553Z,6.17
2019-04-16T07:43:49.428Z,5.84
2019-04-16T07:46:34.503Z,5.52
2019-04-16T07:49:23.454Z,5.08
2019-04-16T07:52:11.751Z,4.80
2019-04-16T07:54:59.818Z,4.61
2019-04-16T07:57:27.029Z,4.80
2019-04-16T07:59:54.114Z,4.92
2019-04-16T08:02:22.387Z,4.55
2019-04-16T08:04:49.919Z,5.18
2019-04-16T08:07:20.158Z,6.17
2019-04-16T08:09:46.304Z,7.17
2019-04-16T08:12:29.467Z,7.97
2019-04-16T08:14:42.617Z,8.41
2019-04-16T08:17:09.813Z,7.62
2019-04-16T08:19:37.668Z,7.55
2019-04-16T08:22:05.036Z,7.68
2019-04-16T08:24:35.762Z,7.31
2019-04-16T08:27:03.073Z,6.39
2019-04-16T08:29:30.351Z,5.88
2019-04-16T08:31:57.533Z,5.52
2019-04-16T08:34:24.721Z,6.05
2019-04-16T08:36:52.488Z,6.84
2019-04-16T08:39:19.665Z,6.45
2019-04-16T08:41:46.739Z,5.78
2019-04-16T08:44:13.937Z,6.16
2019-04-16T08:46:41.248Z,5.46
2019-04-16T08:49:08.608Z,5.38
2019-04-16T08:51:37.824Z,5.40
2019-04-16T08:54:04.881Z,5.64
2019-04-16T08:56:32.054Z,5.51
2019-04-16T08:59:01.246Z,4.96
2019-04-16T09:01:29.806Z,4.94
2019-04-16T09:04:01.549Z,4.87
2019-04-16T09:06:26.180Z,4.72
2019-04-16T09:09:16.762Z,4.85
2019-04-16T09:11:44.567Z,5.17
2019-04-16T09:14:12.054Z,5.00
2019-04-16T09:17:01.973Z,5.99
2019-04-16T09:19:29.118Z,6.75
2019-04-16T09:21:56.622Z,6.46
2019-04-16T09:24:40.532Z,6.43
2019-04-16T09:27:28.689Z,6.06
2019-04-16T09:30:20.174Z,5.92
2019-04-16T09:32:54.717Z,6.11
2019-04-16T09:35:34.883Z,7.13
2019-04-16T09:38:18.951Z,7.94
2019-04-16T09:40:56.001Z,7.79
2019-04-16T09:43:23.822Z,7.79
2019-04-16T09:45:50.993Z,8.71
2019-04-16T09:48:18.101Z,10.00
2019-04-16T09:50:47.966Z,11.49
2019-04-16T09:53:15.299Z,13.18
2019-04-16T09:55:42.565Z,14.70
2019-04-16T09:58:17.211Z,16.79
2019-04-16T10:00:47.339Z,18.39
2019-04-16T10:03:28.289Z,19.40
2019-04-16T10:05:55.768Z,20.56
2019-04-16T10:08:23.561Z,21.88
2019-04-16T10:10:50.839Z,22.39
2019-04-16T10:13:30.106Z,22.65
2019-04-16T10:15:47.750Z,22.22
2019-04-16T10:18:14.945Z,22.58
2019-04-16T10:20:42.078Z,22.89
2019-04-16T10:23:15.056Z,22.74
2019-04-16T10:25:42.267Z,23.21
2019-04-16T10:28:16.734Z,23.61
2019-04-16T10:30:46.946Z,24.03
2019-04-16T10:33:14.500Z,24.70
2019-04-16T10:35:42.601Z,24.25
2019-04-16T10:38:25.677Z,24.28
2019-04-16T10:40:59.539Z,24.48
2019-04-16T10:43:45.254Z,24.02
2019-04-16T10:46:22.041Z,24.21
2019-04-16T10:49:06.548Z,24.20
2019-04-16T10:51:46.538Z,24.33
2019-04-16T10:54:22.635Z,24.54
2019-04-16T10:57:10.339Z,24.80
2019-04-16T10:59:49.410Z,25.07
2019-04-16T11:02:38.941Z,24.94
2019-04-16T11:05:24.639Z,24.41
2019-04-16T11:07:51.710Z,25.31
2019-04-16T11:10:19.085Z,23.99
2019-04-16T11:12:46.139Z,23.73
2019-04-16T11:15:18.155Z,23.43
2019-04-16T11:17:45.232Z,23.30
2019-04-16T11:20:12.860Z,24.99
2019-04-16T11:22:40.021Z,25.50
2019-04-16T11:25:07.530Z,25.05
2019-04-16T11:27:34.790Z,24.63
2019-04-16T11:30:02.118Z,24.00
2019-04-16T11:32:30.226Z,23.31
2019-04-16T11:34:57.436Z,23.35
2019-04-16T11:37:24.634Z,23.85
2019-04-16T11:39:52.609Z,24.21
2019-04-16T11:42:20.121Z,24.58
2019-04-16T11:44:50.146Z,24.64
2019-04-16T11:47:16.677Z,25.23
2019-04-16T11:49:43.802Z,25.29
2019-04-16T11:52:11.121Z,25.33
2019-04-16T11:54:38.279Z,25.56
2019-04-16T11:57:05.642Z,26.03
2019-04-16T11:59:32.834Z,26.55
2019-04-16T12:02:09.900Z,26.78
2019-04-16T12:04:43.796Z,26.70
2019-04-16T12:07:39.536Z,26.74
2019-04-16T12:10:21.007Z,27.18
2019-04-16T12:13:07.896Z,27.51
2019-04-16T12:15:44.374Z,26.57
2019-04-16T12:18:43.268Z,26.70
2019-04-16T12:21:15.223Z,26.65
2019-04-16T12:24:02.074Z,27.21
2019-04-16T12:26:48.851Z,27.31
2019-04-16T12:29:34.119Z,26.98
2019-04-16T12:32:36.149Z,27.67
2019-04-16T12:35:21.529Z,26.54
2019-04-16T12:38:17.965Z,26.78
2019-04-16T12:41:20.075Z,27.29
2019-04-16T12:43:53.057Z,27.41
2019-04-16T12:46:35.162Z,26.75
2019-04-16T12:49:20.591Z,26.00
2019-04-16T12:52:17.528Z,26.45
2019-04-16T12:55:04.168Z,25.77
2019-04-16T12:57:40.595Z,25.87
2019-04-16T13:00:26.082Z,25.55
2019-04-16T13:03:16.349Z,25.47
2019-04-16T13:05:50.944Z,26.16
2019-04-16T13:08:33.089Z,26.28
2019-04-16T13:11:36.245Z,26.49
2019-04-16T13:14:19.258Z,26.32
2019-04-16T13:17:02.190Z,26.58
2019-04-16T13:19:38.387Z,25.98
2019-04-16T13:22:05.840Z,25.23
2019-04-16T13:24:46.024Z,25.09
2019-04-16T13:27:18.341Z,25.61
2019-04-16T13:29:45.706Z,25.49
2019-04-16T13:32:12.920Z,25.22
2019-04-16T13:34:40.099Z,25.34
2019-04-16T13:37:07.360Z,24.84
2019-04-16T13:39:41.100Z,24.76
2019-04-16T13:42:08.295Z,23.97
2019-04-16T13:44:40.669Z,24.49
2019-04-16T13:47:08.085Z,24.44
2019-04-16T13:49:53.483Z,24.10
2019-04-16T13:52:25.171Z,23.54
2019-04-16T13:55:24.555Z,23.45
2019-04-16T13:58:05.040Z,23.01
2019-04-16T14:00:42.332Z,22.32
2019-04-16T14:03:12.237Z,22.26
2019-04-16T14:05:42.606Z,22.44
2019-04-16T14:08:08.692Z,22.25
2019-04-16T14:10:35.861Z,22.62
2019-04-16T14:13:03.082Z,22.45
2019-04-16T14:15:38.936Z,22.35
2019-04-16T14:18:02.068Z,22.80
2019-04-16T14:20:29.198Z,23.16
2019-04-16T14:22:56.392Z,23.53
2019-04-16T14:25:23.607Z,23.61
2019-04-16T14:27:50.803Z,23.55
2019-04-16T14:30:21.323Z,23.17
2019-04-16T14:32:48.868Z,23.62
2019-04-16T14:35:32.405Z,23.59
2019-04-16T14:37:48.626Z,25.00
2019-04-16T14:40:20.854Z,25.54
2019-04-16T14:42:48.271Z,25.73
2019-04-16T14:45:21.883Z,26.01
2019-04-16T14:47:48.991Z,26.17
2019-04-16T14:50:16.169Z,25.98
2019-04-16T14:52:43.345Z,25.77
2019-04-16T14:55:29.578Z,25.53
2019-04-16T14:58:25.775Z,25.27
2019-04-16T15:01:04.441Z,25.21
2019-04-16T15:03:54.025Z,25.21
2019-04-16T15:06:43.843Z,25.10
2019-04-16T15:09:28.325Z,24.93
2019-04-16T15:12:13.586Z,24.48
2019-04-16T15:14:45.961Z,24.33
2019-04-16T15:17:44.915Z,23.96
2019-04-16T15:20:32.786Z,24.13
2019-04-16T15:23:18.393Z,24.33
2019-04-16T15:26:02.870Z,24.22
2019-04-16T15:28:45.485Z,24.21
2019-04-16T15:31:24.714Z,23.86
2019-04-16T15:34:09.829Z,24.12
2019-04-16T15:36:47.235Z,23.72
2019-04-16T15:39:23.421Z,24.14
2019-04-16T15:42:16.304Z,24.65
2019-04-16T15:45:00.468Z,25.07
2019-04-16T15:47:46.938Z,25.31
2019-04-16T15:50:18.924Z,25.59
2019-04-16T15:52:54.148Z,26.47
2019-04-16T15:55:39.559Z,27.44
2019-04-16T15:58:24.458Z,27.75
2019-04-16T16:01:14.502Z,27.92
2019-04-16T16:04:10.252Z,28.24
2019-04-16T16:06:44.088Z,28.44
2019-04-16T16:09:26.603Z,28.59
2019-04-16T16:12:22.066Z,28.96
2019-04-16T16:14:48.644Z,29.13
2019-04-16T16:17:15.952Z,29.25
2019-04-16T16:19:43.504Z,29.36
2019-04-16T16:22:12.139Z,29.83
2019-04-16T16:24:42.287Z,29.89
2019-04-16T16:27:08.930Z,30.08
2019-04-16T16:29:36.438Z,30.13
2019-04-16T16:32:04.158Z,30.21
2019-04-16T16:34:31.507Z,31.19
2019-04-16T16:36:58.774Z,30.82
2019-04-16T16:39:26.438Z,30.96
2019-04-16T16:41:53.990Z,31.15
2019-04-16T16:44:21.584Z,31.40
2019-04-16T16:47:02.574Z,31.38
2019-04-16T16:49:30.158Z,31.69
2019-04-16T16:52:15.258Z,31.82
2019-04-16T16:54:42.717Z,31.76
2019-04-16T16:57:12.558Z,32.25
2019-04-16T16:59:57.923Z,32.19
2019-04-16T17:02:33.037Z,32.46
2019-04-16T17:05:00.495Z,32.37
2019-04-16T17:07:27.535Z,32.55
2019-04-16T17:09:55.398Z,33.04
2019-04-16T17:12:22.705Z,33.08
2019-04-16T17:14:50.373Z,33.27
2019-04-16T17:17:17.567Z,33.63
2019-04-16T17:19:44.872Z,33.91
2019-04-16T17:22:14.722Z,34.32
2019-04-16T17:24:41.619Z,34.31
2019-04-16T17:27:09.057Z,34.59
2019-04-16T17:29:36.328Z,35.09
2019-04-16T17:32:06.233Z,35.42
2019-04-16T17:34:38.814Z,35.82
2019-04-16T17:37:03.233Z,36.21
2019-04-16T17:39:56.378Z,36.68
2019-04-16T17:42:36.969Z,36.92
2019-04-16T17:45:36.735Z,37.26
2019-04-16T17:48:12.426Z,37.50
2019-04-16T17:51:02.058Z,38.20
2019-04-16T17:53:50.077Z,38.24
2019-04-16T17:56:35.533Z,38.47
2019-04-16T17:59:08.682Z,38.82
2019-04-16T18:01:53.702Z,38.90
2019-04-16T18:04:46.242Z,38.97
2019-04-16T18:07:24.448Z,39.45
2019-04-16T18:10:11.320Z,39.31
2019-04-16T18:12:57.167Z,39.30
2019-04-16T18:15:49.828Z,39.66
2019-04-16T18:18:36.944Z,39.76
2019-04-16T18:21:35.783Z,39.90
2019-04-16T18:24:22.537Z,40.24
2019-04-16T18:27:29.165Z,40.84
2019-04-16T18:30:16.326Z,40.98
2019-04-16T18:33:06.954Z,40.85
2019-04-16T18:35:37.072Z,41.34
2019-04-16T18:38:23.901Z,41.72
2019-04-16T18:41:08.923Z,42.49
2019-04-16T18:43:54.292Z,43.23
2019-04-16T18:46:37.284Z,44.52
2019-04-16T18:49:17.444Z,45.29
2019-04-16T18:51:45.412Z,45.87
2019-04-16T18:54:15.130Z,46.21
2019-04-16T18:56:42.133Z,46.81
2019-04-16T18:59:09.349Z,47.65
2019-04-16T19:01:38.027Z,47.80
2019-04-16T19:04:05.722Z,47.96
2019-04-16T19:06:33.099Z,48.13
2019-04-16T19:09:00.914Z,48.00
2019-04-16T19:11:28.123Z,47.82
2019-04-16T19:13:55.479Z,48.04
2019-04-16T19:16:23.039Z,48.24
2019-04-16T19:18:50.606Z,48.32
2019-04-16T19:21:18.329Z,48.61
2019-04-16T19:23:45.801Z,48.83
2019-04-16T19:26:13.323Z,49.02
2019-04-16T19:28:40.972Z,48.83
2019-04-16T19:31:08.198Z,48.66
2019-04-16T19:33:38.285Z,48.79
2019-04-16T19:36:05.161Z,49.04
2019-04-16T19:38:32.745Z,49.20
2019-04-16T19:41:01.755Z,49.38
2019-04-16T19:43:34.347Z,49.37
2019-04-16T19:45:58.083Z,49.58
2019-04-16T19:48:35.207Z,50.06
2019-04-16T19:50:54.368Z,50.28
2019-04-16T19:53:21.859Z,50.49
2019-04-16T19:55:49.093Z,50.46
2019-04-16T19:58:16.642Z,50.50
2019-04-16T20:00:43.852Z,50.77
2019-04-16T20:03:11.098Z,50.31
2019-04-16T20:05:38.681Z,50.08
2019-04-16T20:08:06.033Z,50.15
2019-04-16T20:10:33.126Z,50.07
2019-04-16T20:13:00.425Z,50.42
2019-04-16T20:15:27.545Z,50.38
2019-04-16T20:17:55.111Z,50.29
2019-04-16T20:20:22.535Z,50.56
2019-04-16T20:22:49.721Z,50.84
2019-04-16T20:25:16.937Z,51.13
2019-04-16T20:27:44.183Z,50.94
2019-04-16T20:30:13.039Z,51.04
2019-04-16T20:32:42.261Z,51.38
2019-04-16T20:35:09.790Z,51.59
2019-04-16T20:37:37.059Z,51.77
2019-04-16T20:40:04.697Z,50.83
2019-04-16T20:42:32.237Z,51.17
2019-04-16T20:44:59.649Z,51.46
2019-04-16T20:47:26.924Z,51.72
2019-04-16T20:49:54.157Z,51.93
2019-04-16T20:52:21.643Z,51.57
2019-04-16T20:54:51.714Z,51.86
2019-04-16T20:57:18.965Z,51.95
2019-04-16T20:59:46.279Z,52.30
2019-04-16T21:02:14.577Z,52.85
2019-04-16T21:04:41.837Z,53.43
2019-04-16T21:07:14.158Z,53.88
2019-04-16T21:09:38.209Z,54.58
2019-04-16T21:12:05.745Z,54.83
2019-04-16T21:14:33.218Z,55.22
2019-04-16T21:17:05.724Z,55.23
2019-04-16T21:19:46.617Z,55.77
2019-04-16T21:22:15.935Z,55.98
2019-04-16T21:24:43.445Z,56.51
2019-04-16T21:27:10.855Z,56.81
2019-04-16T21:29:38.078Z,57.10
2019-04-16T21:32:10.272Z,57.44
2019-04-16T21:34:42.118Z,57.85
2019-04-16T21:37:27.316Z,58.31
2019-04-16T21:39:57.150Z,58.70
2019-04-16T21:42:24.735Z,58.99
2019-04-16T21:44:52.239Z,59.38
2019-04-16T21:47:23.120Z,59.56
2019-04-16T21:49:48.912Z,59.83
2019-04-16T21:52:16.788Z,60.05
2019-04-16T21:54:44.287Z,60.42
2019-04-16T21:57:13.468Z,60.65
2019-04-16T21:59:40.741Z,61.01
2019-04-16T22:02:14.953Z,61.10
2019-04-16T22:04:42.741Z,61.31
2019-04-16T22:07:11.550Z,61.30
2019-04-16T22:09:38.768Z,61.38
2019-04-16T22:12:05.991Z,61.38
2019-04-16T22:14:33.535Z,61.41
2019-04-16T22:17:04.177Z,61.19
2019-04-16T22:19:30.129Z,61.26
2019-04-16T22:21:57.305Z,61.13
2019-04-16T22:24:24.845Z,61.24
2019-04-16T22:26:52.371Z,61.45
2019-04-16T22:29:19.543Z,61.19
2019-04-16T22:31:46.778Z,61.33
2019-04-16T22:34:14.189Z,61.42
2019-04-16T22:36:41.289Z,61.57
2019-04-16T22:39:20.819Z,61.67
2019-04-16T22:41:57.425Z,61.95
2019-04-16T22:44:47.802Z,61.53
2019-04-16T22:47:18.094Z,61.60
2019-04-16T22:49:45.311Z,61.88
2019-04-16T22:52:13.311Z,61.82
2019-04-16T22:54:40.463Z,61.98
2019-04-16T22:57:09.591Z,62.27
2019-04-16T22:59:39.350Z,62.56
2019-04-16T23:02:31.573Z,62.55
2019-04-16T23:04:59.998Z,62.45
2019-04-16T23:07:27.187Z,62.11
2019-04-16T23:09:54.392Z,62.24
2019-04-16T23:12:24.493Z,62.29
2019-04-16T23:14:50.719Z,62.81
2019-04-16T23:17:19.814Z,62.59
2019-04-16T23:19:47.198Z,62.69
2019-04-16T23:22:15.383Z,63.09
2019-04-16T23:24:42.650Z,63.36
2019-04-16T23:27:09.850Z,63.56
2019-04-16T23:29:37.072Z,63.70
2019-04-16T23:32:04.308Z,64.13
2019-04-16T23:34:31.512Z,64.37
2019-04-16T23:36:58.741Z,64.25
2019-04-16T23:39:25.893Z,64.23
2019-04-16T23:41:53.170Z,64.47
2019-04-16T23:44:49.080Z,64.85
2019-04-16T23:47:33.999Z,65.00
2019-04-16T23:50:10.684Z,65.22
2019-04-16T23:52:43.096Z,65.54
2019-04-16T23:55:26.275Z,65.92
2019-04-16T23:58:02.609Z,66.30
